sensor_id;sensor_type;location;lat;lon;timestamp;P1;durP1;ratioP1;P2;durP2;ratioP2
24157;SDS011;12316;50.904;4.200;2023-05-10T00:01:47;13.05;;;7.72;;
24157;SDS011;12316;50.904;4.200;2023-05-10T00:04:13;13.82;;;7.93;;
24157;SDS011;12316;50.904;4.200;2023-05-10T00:06:39;12.55;;;7.45;;
24157;SDS011;12316;50.904;4.200;2023-05-10T00:09:04;15.15;;;7.38;;
24157;SDS011;12316;50.904;4.200;2023-05-10T00:11:30;13.45;;;7.97;;
24157;SDS011;12316;50.904;4.200;2023-05-10T00:13:56;13.48;;;7.50;;
24157;SDS011;12316;50.904;4.200;2023-05-10T00:16:21;16.15;;;8.30;;
24157;SDS011;12316;50.904;4.200;2023-05-10T00:18:47;15.10;;;9.13;;
24157;SDS011;12316;50.904;4.200;2023-05-10T00:21:13;17.48;;;8.52;;
24157;SDS011;12316;50.904;4.200;2023-05-10T00:23:38;15.57;;;7.95;;
24157;SDS011;12316;50.904;4.200;2023-05-10T00:26:04;16.63;;;8.07;;
24157;SDS011;12316;50.904;4.200;2023-05-10T00:28:30;16.42;;;8.98;;
24157;SDS011;12316;50.904;4.200;2023-05-10T00:30:56;15.02;;;8.40;;
24157;SDS011;12316;50.904;4.200;2023-05-10T00:33:22;15.93;;;8.95;;
24157;SDS011;12316;50.904;4.200;2023-05-10T00:35:48;18.90;;;8.93;;
24157;SDS011;12316;50.904;4.200;2023-05-10T00:38:13;16.08;;;8.90;;
24157;SDS011;12316;50.904;4.200;2023-05-10T00:40:39;15.38;;;8.40;;
24157;SDS011;12316;50.904;4.200;2023-05-10T00:43:05;17.70;;;9.32;;
24157;SDS011;12316;50.904;4.200;2023-05-10T00:45:32;14.50;;;9.38;;
24157;SDS011;12316;50.904;4.200;2023-05-10T00:47:59;15.52;;;9.00;;
24157;SDS011;12316;50.904;4.200;2023-05-10T00:50:27;16.83;;;9.60;;
24157;SDS011;12316;50.904;4.200;2023-05-10T00:52:53;14.20;;;9.48;;
24157;SDS011;12316;50.904;4.200;2023-05-10T00:55:20;18.50;;;9.05;;
24157;SDS011;12316;50.904;4.200;2023-05-10T00:57:46;18.05;;;9.88;;
24157;SDS011;12316;50.904;4.200;2023-05-10T01:00:12;19.33;;;9.80;;
24157;SDS011;12316;50.904;4.200;2023-05-10T01:02:43;20.10;;;10.40;;
24157;SDS011;12316;50.904;4.200;2023-05-10T01:05:11;16.05;;;10.00;;
24157;SDS011;12316;50.904;4.200;2023-05-10T01:07:38;18.30;;;9.88;;
24157;SDS011;12316;50.904;4.200;2023-05-10T01:10:04;19.35;;;10.57;;
24157;SDS011;12316;50.904;4.200;2023-05-10T01:12:31;17.45;;;9.88;;
24157;SDS011;12316;50.904;4.200;2023-05-10T01:14:57;19.02;;;10.57;;
24157;SDS011;12316;50.904;4.200;2023-05-10T01:17:25;14.43;;;9.60;;
24157;SDS011;12316;50.904;4.200;2023-05-10T01:19:51;20.85;;;10.82;;
24157;SDS011;12316;50.904;4.200;2023-05-10T01:38:26;17.15;;;11.00;;
24157;SDS011;12316;50.904;4.200;2023-05-10T01:41:04;18.02;;;11.32;;
24157;SDS011;12316;50.904;4.200;2023-05-10T01:43:54;17.42;;;10.43;;
24157;SDS011;12316;50.904;4.200;2023-05-10T01:46:42;18.92;;;11.07;;
24157;SDS011;12316;50.904;4.200;2023-05-10T01:52:15;20.42;;;11.30;;
24157;SDS011;12316;50.904;4.200;2023-05-10T01:54:49;21.00;;;12.85;;
24157;SDS011;12316;50.904;4.200;2023-05-10T01:57:37;22.20;;;12.32;;
24157;SDS011;12316;50.904;4.200;2023-05-10T02:00:06;20.73;;;13.05;;
24157;SDS011;12316;50.904;4.200;2023-05-10T02:02:34;20.83;;;13.82;;
24157;SDS011;12316;50.904;4.200;2023-05-10T02:05:07;22.27;;;13.35;;
24157;SDS011;12316;50.904;4.200;2023-05-10T02:07:35;22.40;;;13.65;;
24157;SDS011;12316;50.904;4.200;2023-05-10T02:10:02;21.75;;;12.63;;
24157;SDS011;12316;50.904;4.200;2023-05-10T02:12:35;23.67;;;14.57;;
24157;SDS011;12316;50.904;4.200;2023-05-10T02:15:03;24.83;;;14.73;;
24157;SDS011;12316;50.904;4.200;2023-05-10T02:17:31;23.58;;;13.95;;
24157;SDS011;12316;50.904;4.200;2023-05-10T02:19:58;24.50;;;14.63;;
24157;SDS011;12316;50.904;4.200;2023-05-10T02:22:26;21.88;;;14.32;;
24157;SDS011;12316;50.904;4.200;2023-05-10T02:24:54;27.60;;;14.55;;
24157;SDS011;12316;50.904;4.200;2023-05-10T02:27:23;25.92;;;15.15;;
24157;SDS011;12316;50.904;4.200;2023-05-10T02:29:52;23.10;;;14.25;;
24157;SDS011;12316;50.904;4.200;2023-05-10T02:32:19;31.08;;;14.85;;
24157;SDS011;12316;50.904;4.200;2023-05-10T02:34:46;25.15;;;14.93;;
24157;SDS011;12316;50.904;4.200;2023-05-10T02:37:20;28.98;;;15.88;;
24157;SDS011;12316;50.904;4.200;2023-05-10T02:39:47;24.67;;;14.77;;
24157;SDS011;12316;50.904;4.200;2023-05-10T02:42:16;27.65;;;15.25;;
24157;SDS011;12316;50.904;4.200;2023-05-10T02:44:47;25.63;;;14.93;;
24157;SDS011;12316;50.904;4.200;2023-05-10T02:47:14;27.55;;;16.00;;
24157;SDS011;12316;50.904;4.200;2023-05-10T02:49:40;26.58;;;16.67;;
24157;SDS011;12316;50.904;4.200;2023-05-10T02:52:06;28.85;;;17.23;;
24157;SDS011;12316;50.904;4.200;2023-05-10T02:54:36;31.02;;;16.80;;
24157;SDS011;12316;50.904;4.200;2023-05-10T02:57:09;26.92;;;17.25;;
24157;SDS011;12316;50.904;4.200;2023-05-10T02:59:39;26.58;;;17.40;;
24157;SDS011;12316;50.904;4.200;2023-05-10T03:02:09;29.98;;;17.10;;
24157;SDS011;12316;50.904;4.200;2023-05-10T03:04:35;30.60;;;17.33;;
24157;SDS011;12316;50.904;4.200;2023-05-10T03:07:01;29.88;;;17.70;;
24157;SDS011;12316;50.904;4.200;2023-05-10T03:09:27;28.80;;;18.45;;
24157;SDS011;12316;50.904;4.200;2023-05-10T03:14:53;29.65;;;19.10;;
24157;SDS011;12316;50.904;4.200;2023-05-10T03:20:22;29.38;;;19.60;;
24157;SDS011;12316;50.904;4.200;2023-05-10T03:22:54;30.20;;;18.90;;
24157;SDS011;12316;50.904;4.200;2023-05-10T03:25:24;34.17;;;19.70;;
24157;SDS011;12316;50.904;4.200;2023-05-10T03:27:50;34.70;;;20.42;;
24157;SDS011;12316;50.904;4.200;2023-05-10T03:30:17;36.50;;;20.88;;
24157;SDS011;12316;50.904;4.200;2023-05-10T03:32:44;36.30;;;20.60;;
24157;SDS011;12316;50.904;4.200;2023-05-10T03:35:11;32.10;;;20.15;;
24157;SDS011;12316;50.904;4.200;2023-05-10T03:37:39;29.80;;;19.85;;
24157;SDS011;12316;50.904;4.200;2023-05-10T03:40:05;30.75;;;20.45;;
24157;SDS011;12316;50.904;4.200;2023-05-10T03:42:31;32.33;;;19.50;;
24157;SDS011;12316;50.904;4.200;2023-05-10T03:44:57;33.35;;;20.90;;
24157;SDS011;12316;50.904;4.200;2023-05-10T03:47:23;30.35;;;19.92;;
24157;SDS011;12316;50.904;4.200;2023-05-10T03:49:48;30.27;;;19.42;;
24157;SDS011;12316;50.904;4.200;2023-05-10T03:52:14;33.45;;;20.48;;
24157;SDS011;12316;50.904;4.200;2023-05-10T03:54:40;33.45;;;20.60;;
24157;SDS011;12316;50.904;4.200;2023-05-10T03:57:05;31.15;;;20.23;;
24157;SDS011;12316;50.904;4.200;2023-05-10T03:59:31;32.60;;;20.65;;
24157;SDS011;12316;50.904;4.200;2023-05-10T04:01:57;34.55;;;20.90;;
24157;SDS011;12316;50.904;4.200;2023-05-10T04:04:23;33.22;;;20.67;;
24157;SDS011;12316;50.904;4.200;2023-05-10T04:06:49;30.00;;;19.85;;
24157;SDS011;12316;50.904;4.200;2023-05-10T04:09:15;33.20;;;20.88;;
24157;SDS011;12316;50.904;4.200;2023-05-10T04:11:41;34.35;;;20.48;;
24157;SDS011;12316;50.904;4.200;2023-05-10T04:14:07;36.13;;;22.13;;
24157;SDS011;12316;50.904;4.200;2023-05-10T04:16:33;34.13;;;22.30;;
24157;SDS011;12316;50.904;4.200;2023-05-10T04:18:58;37.20;;;23.17;;
24157;SDS011;12316;50.904;4.200;2023-05-10T04:21:24;35.00;;;21.70;;
24157;SDS011;12316;50.904;4.200;2023-05-10T04:23:50;39.30;;;23.20;;
24157;SDS011;12316;50.904;4.200;2023-05-10T04:26:17;40.00;;;23.30;;
24157;SDS011;12316;50.904;4.200;2023-05-10T04:28:42;34.97;;;21.77;;
24157;SDS011;12316;50.904;4.200;2023-05-10T04:31:09;38.55;;;23.27;;
24157;SDS011;12316;50.904;4.200;2023-05-10T04:33:35;34.97;;;22.65;;
24157;SDS011;12316;50.904;4.200;2023-05-10T04:36:02;35.60;;;22.63;;
24157;SDS011;12316;50.904;4.200;2023-05-10T04:38:29;35.00;;;22.40;;
24157;SDS011;12316;50.904;4.200;2023-05-10T04:40:54;36.95;;;23.23;;
24157;SDS011;12316;50.904;4.200;2023-05-10T04:43:32;40.10;;;23.80;;
24157;SDS011;12316;50.904;4.200;2023-05-10T04:45:58;35.35;;;23.10;;
24157;SDS011;12316;50.904;4.200;2023-05-10T04:48:24;37.05;;;23.58;;
24157;SDS011;12316;50.904;4.200;2023-05-10T04:50:50;35.60;;;23.30;;
24157;SDS011;12316;50.904;4.200;2023-05-10T04:53:15;36.58;;;24.63;;
24157;SDS011;12316;50.904;4.200;2023-05-10T04:55:41;38.72;;;24.65;;
24157;SDS011;12316;50.904;4.200;2023-05-10T04:58:07;41.92;;;24.85;;
24157;SDS011;12316;50.904;4.200;2023-05-10T05:00:33;39.00;;;24.15;;
24157;SDS011;12316;50.904;4.200;2023-05-10T05:02:59;38.40;;;24.27;;
24157;SDS011;12316;50.904;4.200;2023-05-10T05:05:24;39.85;;;23.45;;
24157;SDS011;12316;50.904;4.200;2023-05-10T05:07:50;38.58;;;25.17;;
24157;SDS011;12316;50.904;4.200;2023-05-10T05:10:16;33.72;;;23.17;;
24157;SDS011;12316;50.904;4.200;2023-05-10T05:12:41;37.17;;;23.42;;
24157;SDS011;12316;50.904;4.200;2023-05-10T05:15:07;38.00;;;23.15;;
24157;SDS011;12316;50.904;4.200;2023-05-10T05:17:34;36.75;;;22.30;;
24157;SDS011;12316;50.904;4.200;2023-05-10T05:20:00;38.58;;;22.80;;
24157;SDS011;12316;50.904;4.200;2023-05-10T05:22:26;34.05;;;22.92;;
24157;SDS011;12316;50.904;4.200;2023-05-10T05:24:56;35.97;;;24.15;;
24157;SDS011;12316;50.904;4.200;2023-05-10T05:27:23;34.38;;;23.13;;
24157;SDS011;12316;50.904;4.200;2023-05-10T05:29:54;37.03;;;23.48;;
24157;SDS011;12316;50.904;4.200;2023-05-10T05:32:21;36.53;;;22.95;;
24157;SDS011;12316;50.904;4.200;2023-05-10T05:34:47;36.00;;;23.15;;
24157;SDS011;12316;50.904;4.200;2023-05-10T05:37:16;35.45;;;22.05;;
24157;SDS011;12316;50.904;4.200;2023-05-10T05:39:43;34.72;;;21.52;;
24157;SDS011;12316;50.904;4.200;2023-05-10T05:42:09;32.38;;;20.52;;
24157;SDS011;12316;50.904;4.200;2023-05-10T05:44:35;34.58;;;20.73;;
24157;SDS011;12316;50.904;4.200;2023-05-10T05:47:01;33.28;;;20.33;;
24157;SDS011;12316;50.904;4.200;2023-05-10T05:49:27;35.10;;;20.98;;
24157;SDS011;12316;50.904;4.200;2023-05-10T05:51:53;37.35;;;20.65;;
24157;SDS011;12316;50.904;4.200;2023-05-10T05:54:20;35.97;;;19.85;;
24157;SDS011;12316;50.904;4.200;2023-05-10T05:56:46;36.08;;;20.77;;
24157;SDS011;12316;50.904;4.200;2023-05-10T05:59:13;33.25;;;19.83;;
24157;SDS011;12316;50.904;4.200;2023-05-10T06:01:38;39.28;;;21.48;;
24157;SDS011;12316;50.904;4.200;2023-05-10T06:04:04;35.40;;;21.65;;
24157;SDS011;12316;50.904;4.200;2023-05-10T06:06:30;36.08;;;21.45;;
24157;SDS011;12316;50.904;4.200;2023-05-10T06:08:57;35.22;;;21.13;;
24157;SDS011;12316;50.904;4.200;2023-05-10T06:11:22;36.70;;;21.70;;
24157;SDS011;12316;50.904;4.200;2023-05-10T06:13:48;34.30;;;21.20;;
24157;SDS011;12316;50.904;4.200;2023-05-10T06:16:14;37.75;;;21.88;;
24157;SDS011;12316;50.904;4.200;2023-05-10T06:18:40;39.13;;;21.65;;
24157;SDS011;12316;50.904;4.200;2023-05-10T06:21:06;41.53;;;21.63;;
24157;SDS011;12316;50.904;4.200;2023-05-10T06:23:31;34.30;;;21.60;;
24157;SDS011;12316;50.904;4.200;2023-05-10T06:25:57;37.88;;;21.70;;
24157;SDS011;12316;50.904;4.200;2023-05-10T06:28:24;34.22;;;21.17;;
24157;SDS011;12316;50.904;4.200;2023-05-10T06:30:50;33.45;;;20.50;;
24157;SDS011;12316;50.904;4.200;2023-05-10T06:33:16;32.60;;;21.17;;
24157;SDS011;12316;50.904;4.200;2023-05-10T06:35:42;35.63;;;20.70;;
24157;SDS011;12316;50.904;4.200;2023-05-10T06:38:07;35.22;;;20.70;;
24157;SDS011;12316;50.904;4.200;2023-05-10T06:40:34;35.75;;;19.88;;
24157;SDS011;12316;50.904;4.200;2023-05-10T06:43:00;37.20;;;21.25;;
24157;SDS011;12316;50.904;4.200;2023-05-10T06:45:26;31.60;;;20.35;;
24157;SDS011;12316;50.904;4.200;2023-05-10T06:47:52;34.97;;;21.52;;
24157;SDS011;12316;50.904;4.200;2023-05-10T06:50:17;36.90;;;21.02;;
24157;SDS011;12316;50.904;4.200;2023-05-10T06:52:43;42.03;;;21.58;;
24157;SDS011;12316;50.904;4.200;2023-05-10T06:55:09;37.70;;;20.42;;
24157;SDS011;12316;50.904;4.200;2023-05-10T06:57:36;36.17;;;21.10;;
24157;SDS011;12316;50.904;4.200;2023-05-10T07:00:02;35.15;;;20.40;;
24157;SDS011;12316;50.904;4.200;2023-05-10T07:02:30;36.97;;;21.50;;
24157;SDS011;12316;50.904;4.200;2023-05-10T07:04:56;37.10;;;21.15;;
24157;SDS011;12316;50.904;4.200;2023-05-10T07:07:22;33.88;;;20.23;;
24157;SDS011;12316;50.904;4.200;2023-05-10T07:09:48;37.63;;;18.92;;
24157;SDS011;12316;50.904;4.200;2023-05-10T07:12:14;35.80;;;18.73;;
24157;SDS011;12316;50.904;4.200;2023-05-10T07:14:41;31.38;;;18.55;;
24157;SDS011;12316;50.904;4.200;2023-05-10T07:17:07;33.78;;;19.02;;
24157;SDS011;12316;50.904;4.200;2023-05-10T07:19:33;33.28;;;18.80;;
24157;SDS011;12316;50.904;4.200;2023-05-10T07:21:58;32.00;;;18.90;;
24157;SDS011;12316;50.904;4.200;2023-05-10T07:24:24;31.45;;;18.05;;
24157;SDS011;12316;50.904;4.200;2023-05-10T07:26:50;28.20;;;18.13;;
24157;SDS011;12316;50.904;4.200;2023-05-10T07:29:15;30.38;;;16.15;;
24157;SDS011;12316;50.904;4.200;2023-05-10T07:31:41;27.83;;;16.00;;
24157;SDS011;12316;50.904;4.200;2023-05-10T07:34:08;26.05;;;15.20;;
24157;SDS011;12316;50.904;4.200;2023-05-10T07:36:34;24.38;;;14.75;;
24157;SDS011;12316;50.904;4.200;2023-05-10T07:38:59;25.48;;;15.30;;
24157;SDS011;12316;50.904;4.200;2023-05-10T07:41:25;29.48;;;14.85;;
24157;SDS011;12316;50.904;4.200;2023-05-10T07:43:52;28.27;;;15.32;;
24157;SDS011;12316;50.904;4.200;2023-05-10T07:46:17;27.73;;;15.40;;
24157;SDS011;12316;50.904;4.200;2023-05-10T07:48:44;21.95;;;14.38;;
24157;SDS011;12316;50.904;4.200;2023-05-10T07:51:10;23.80;;;14.32;;
24157;SDS011;12316;50.904;4.200;2023-05-10T07:53:38;28.55;;;15.18;;
24157;SDS011;12316;50.904;4.200;2023-05-10T07:58:54;21.90;;;10.70;;
24157;SDS011;12316;50.904;4.200;2023-05-10T08:01:21;17.98;;;10.27;;
24157;SDS011;12316;50.904;4.200;2023-05-10T08:03:47;19.23;;;9.90;;
24157;SDS011;12316;50.904;4.200;2023-05-10T08:06:14;20.00;;;10.73;;
24157;SDS011;12316;50.904;4.200;2023-05-10T08:08:40;26.17;;;11.35;;
24157;SDS011;12316;50.904;4.200;2023-05-10T08:11:06;19.98;;;10.98;;
24157;SDS011;12316;50.904;4.200;2023-05-10T08:13:32;18.30;;;11.00;;
24157;SDS011;12316;50.904;4.200;2023-05-10T08:15:57;21.48;;;12.25;;
24157;SDS011;12316;50.904;4.200;2023-05-10T08:18:23;21.77;;;12.48;;
24157;SDS011;12316;50.904;4.200;2023-05-10T08:20:49;19.65;;;12.30;;
24157;SDS011;12316;50.904;4.200;2023-05-10T08:23:15;21.25;;;12.80;;
24157;SDS011;12316;50.904;4.200;2023-05-10T08:25:41;22.75;;;12.43;;
24157;SDS011;12316;50.904;4.200;2023-05-10T08:28:06;20.27;;;11.52;;
24157;SDS011;12316;50.904;4.200;2023-05-10T08:30:32;17.85;;;10.70;;
24157;SDS011;12316;50.904;4.200;2023-05-10T08:32:58;18.85;;;10.30;;
24157;SDS011;12316;50.904;4.200;2023-05-10T08:35:23;16.77;;;10.80;;
24157;SDS011;12316;50.904;4.200;2023-05-10T08:37:50;16.00;;;9.82;;
24157;SDS011;12316;50.904;4.200;2023-05-10T08:40:16;18.63;;;10.55;;
24157;SDS011;12316;50.904;4.200;2023-05-10T08:42:47;15.93;;;10.00;;
24157;SDS011;12316;50.904;4.200;2023-05-10T08:45:21;15.40;;;10.20;;
24157;SDS011;12316;50.904;4.200;2023-05-10T08:47:49;15.40;;;9.95;;
24157;SDS011;12316;50.904;4.200;2023-05-10T08:50:15;15.27;;;9.85;;
24157;SDS011;12316;50.904;4.200;2023-05-10T08:52:45;16.40;;;10.40;;
24157;SDS011;12316;50.904;4.200;2023-05-10T08:55:13;15.18;;;9.45;;
24157;SDS011;12316;50.904;4.200;2023-05-10T08:57:39;17.90;;;10.45;;
24157;SDS011;12316;50.904;4.200;2023-05-10T09:00:05;16.35;;;9.88;;
24157;SDS011;12316;50.904;4.200;2023-05-10T09:02:31;16.80;;;11.02;;
24157;SDS011;12316;50.904;4.200;2023-05-10T09:04:57;16.33;;;10.80;;
24157;SDS011;12316;50.904;4.200;2023-05-10T09:07:23;18.92;;;10.93;;
24157;SDS011;12316;50.904;4.200;2023-05-10T09:09:49;16.60;;;10.80;;
24157;SDS011;12316;50.904;4.200;2023-05-10T09:12:15;15.75;;;10.80;;
24157;SDS011;12316;50.904;4.200;2023-05-10T09:14:41;17.27;;;10.98;;
24157;SDS011;12316;50.904;4.200;2023-05-10T09:17:09;16.33;;;10.60;;
24157;SDS011;12316;50.904;4.200;2023-05-10T09:19:35;12.73;;;9.68;;
24157;SDS011;12316;50.904;4.200;2023-05-10T09:22:00;15.48;;;10.15;;
24157;SDS011;12316;50.904;4.200;2023-05-10T09:24:28;13.15;;;9.80;;
24157;SDS011;12316;50.904;4.200;2023-05-10T09:26:54;14.32;;;10.07;;
24157;SDS011;12316;50.904;4.200;2023-05-10T09:29:22;14.55;;;10.55;;
24157;SDS011;12316;50.904;4.200;2023-05-10T09:31:49;12.40;;;9.70;;
24157;SDS011;12316;50.904;4.200;2023-05-10T09:34:21;16.65;;;10.95;;
24157;SDS011;12316;50.904;4.200;2023-05-10T09:36:58;14.20;;;10.43;;
24157;SDS011;12316;50.904;4.200;2023-05-10T09:39:35;15.07;;;10.70;;
24157;SDS011;12316;50.904;4.200;2023-05-10T09:42:05;13.90;;;10.50;;
24157;SDS011;12316;50.904;4.200;2023-05-10T09:44:32;15.13;;;10.05;;
24157;SDS011;12316;50.904;4.200;2023-05-10T09:46:59;16.00;;;10.07;;
24157;SDS011;12316;50.904;4.200;2023-05-10T09:49:26;14.80;;;10.27;;
24157;SDS011;12316;50.904;4.200;2023-05-10T09:54:30;12.40;;;9.45;;
24157;SDS011;12316;50.904;4.200;2023-05-10T09:56:56;10.50;;;8.35;;
24157;SDS011;12316;50.904;4.200;2023-05-10T09:59:23;9.70;;;8.35;;
24157;SDS011;12316;50.904;4.200;2023-05-10T10:01:51;11.40;;;8.52;;
24157;SDS011;12316;50.904;4.200;2023-05-10T10:04:18;12.23;;;7.70;;
24157;SDS011;12316;50.904;4.200;2023-05-10T10:06:46;9.38;;;8.05;;
24157;SDS011;12316;50.904;4.200;2023-05-10T10:09:11;9.55;;;7.22;;
24157;SDS011;12316;50.904;4.200;2023-05-10T10:11:38;11.43;;;8.05;;
24157;SDS011;12316;50.904;4.200;2023-05-10T10:14:05;10.75;;;8.10;;
24157;SDS011;12316;50.904;4.200;2023-05-10T10:16:31;14.00;;;8.25;;
24157;SDS011;12316;50.904;4.200;2023-05-10T10:18:57;10.00;;;8.05;;
24157;SDS011;12316;50.904;4.200;2023-05-10T10:21:23;12.27;;;8.82;;
24157;SDS011;12316;50.904;4.200;2023-05-10T10:23:49;12.10;;;8.60;;
24157;SDS011;12316;50.904;4.200;2023-05-10T10:26:16;11.02;;;8.45;;
24157;SDS011;12316;50.904;4.200;2023-05-10T10:33:59;8.85;;;7.70;;
24157;SDS011;12316;50.904;4.200;2023-05-10T10:36:28;11.35;;;7.97;;
24157;SDS011;12316;50.904;4.200;2023-05-10T10:38:54;11.88;;;8.00;;
24157;SDS011;12316;50.904;4.200;2023-05-10T10:44:30;10.25;;;8.48;;
24157;SDS011;12316;50.904;4.200;2023-05-10T10:47:07;9.82;;;7.90;;
24157;SDS011;12316;50.904;4.200;2023-05-10T10:49:51;11.25;;;8.93;;
24157;SDS011;12316;50.904;4.200;2023-05-10T10:52:28;10.20;;;8.43;;
24157;SDS011;12316;50.904;4.200;2023-05-10T10:55:02;12.65;;;9.10;;
24157;SDS011;12316;50.904;4.200;2023-05-10T10:57:31;10.65;;;8.48;;
24157;SDS011;12316;50.904;4.200;2023-05-10T11:02:47;13.00;;;9.52;;
24157;SDS011;12316;50.904;4.200;2023-05-10T11:08:07;13.02;;;9.88;;
24157;SDS011;12316;50.904;4.200;2023-05-10T11:10:36;13.95;;;10.18;;
24157;SDS011;12316;50.904;4.200;2023-05-10T11:13:02;13.13;;;10.27;;
24157;SDS011;12316;50.904;4.200;2023-05-10T11:15:33;10.73;;;9.43;;
24157;SDS011;12316;50.904;4.200;2023-05-10T11:18:16;13.40;;;10.05;;
24157;SDS011;12316;50.904;4.200;2023-05-10T11:20:41;14.75;;;10.38;;
24157;SDS011;12316;50.904;4.200;2023-05-10T11:23:11;14.98;;;9.95;;
24157;SDS011;12316;50.904;4.200;2023-05-10T11:28:10;13.93;;;9.60;;
24157;SDS011;12316;50.904;4.200;2023-05-10T11:30:38;13.13;;;9.70;;
24157;SDS011;12316;50.904;4.200;2023-05-10T11:33:05;14.82;;;11.35;;
24157;SDS011;12316;50.904;4.200;2023-05-10T11:35:36;14.55;;;10.25;;
24157;SDS011;12316;50.904;4.200;2023-05-10T11:38:09;14.02;;;9.95;;
24157;SDS011;12316;50.904;4.200;2023-05-10T11:40:35;13.43;;;9.75;;
24157;SDS011;12316;50.904;4.200;2023-05-10T11:43:02;15.65;;;10.30;;
24157;SDS011;12316;50.904;4.200;2023-05-10T11:45:28;11.57;;;9.57;;
24157;SDS011;12316;50.904;4.200;2023-05-10T11:47:57;12.43;;;9.50;;
24157;SDS011;12316;50.904;4.200;2023-05-10T11:50:24;13.02;;;9.93;;
24157;SDS011;12316;50.904;4.200;2023-05-10T11:52:51;12.30;;;9.73;;
24157;SDS011;12316;50.904;4.200;2023-05-10T11:55:21;13.43;;;10.23;;
24157;SDS011;12316;50.904;4.200;2023-05-10T11:57:47;13.95;;;9.30;;
24157;SDS011;12316;50.904;4.200;2023-05-10T12:00:16;12.55;;;9.38;;
24157;SDS011;12316;50.904;4.200;2023-05-10T12:02:42;12.95;;;9.02;;
24157;SDS011;12316;50.904;4.200;2023-05-10T12:05:08;14.98;;;9.73;;
24157;SDS011;12316;50.904;4.200;2023-05-10T12:07:34;12.48;;;9.70;;
24157;SDS011;12316;50.904;4.200;2023-05-10T12:10:04;12.40;;;10.23;;
24157;SDS011;12316;50.904;4.200;2023-05-10T12:12:41;12.88;;;10.45;;
24157;SDS011;12316;50.904;4.200;2023-05-10T12:15:12;12.90;;;10.45;;
24157;SDS011;12316;50.904;4.200;2023-05-10T12:17:45;13.27;;;9.77;;
24157;SDS011;12316;50.904;4.200;2023-05-10T12:20:21;12.63;;;10.05;;
24157;SDS011;12316;50.904;4.200;2023-05-10T12:22:50;14.13;;;10.13;;
24157;SDS011;12316;50.904;4.200;2023-05-10T12:25:21;13.13;;;10.48;;
24157;SDS011;12316;50.904;4.200;2023-05-10T12:27:50;12.70;;;10.02;;
24157;SDS011;12316;50.904;4.200;2023-05-10T12:30:24;14.23;;;9.75;;
24157;SDS011;12316;50.904;4.200;2023-05-10T12:32:52;12.82;;;9.80;;
24157;SDS011;12316;50.904;4.200;2023-05-10T12:35:18;13.23;;;10.27;;
24157;SDS011;12316;50.904;4.200;2023-05-10T12:37:47;13.98;;;10.15;;
24157;SDS011;12316;50.904;4.200;2023-05-10T12:40:13;13.02;;;10.43;;
24157;SDS011;12316;50.904;4.200;2023-05-10T12:42:39;14.88;;;10.50;;
24157;SDS011;12316;50.904;4.200;2023-05-10T12:45:05;13.45;;;10.07;;
24157;SDS011;12316;50.904;4.200;2023-05-10T12:47:32;13.25;;;10.02;;
24157;SDS011;12316;50.904;4.200;2023-05-10T12:49:59;12.25;;;9.80;;
24157;SDS011;12316;50.904;4.200;2023-05-10T12:52:25;13.73;;;9.77;;
24157;SDS011;12316;50.904;4.200;2023-05-10T12:54:52;15.93;;;10.50;;
24157;SDS011;12316;50.904;4.200;2023-05-10T12:57:19;12.75;;;10.27;;
24157;SDS011;12316;50.904;4.200;2023-05-10T12:59:45;14.95;;;10.65;;
24157;SDS011;12316;50.904;4.200;2023-05-10T13:02:11;16.05;;;10.63;;
24157;SDS011;12316;50.904;4.200;2023-05-10T13:04:36;13.98;;;9.88;;
24157;SDS011;12316;50.904;4.200;2023-05-10T13:07:05;13.35;;;10.95;;
24157;SDS011;12316;50.904;4.200;2023-05-10T13:09:34;12.98;;;10.25;;
24157;SDS011;12316;50.904;4.200;2023-05-10T13:11:59;12.85;;;10.40;;
24157;SDS011;12316;50.904;4.200;2023-05-10T13:14:25;13.95;;;11.40;;
24157;SDS011;12316;50.904;4.200;2023-05-10T13:16:51;15.68;;;11.05;;
24157;SDS011;12316;50.904;4.200;2023-05-10T13:19:17;15.23;;;11.43;;
24157;SDS011;12316;50.904;4.200;2023-05-10T13:21:43;14.77;;;11.05;;
24157;SDS011;12316;50.904;4.200;2023-05-10T13:24:09;13.48;;;11.18;;
24157;SDS011;12316;50.904;4.200;2023-05-10T13:26:38;15.18;;;11.00;;
24157;SDS011;12316;50.904;4.200;2023-05-10T13:29:07;14.13;;;11.38;;
24157;SDS011;12316;50.904;4.200;2023-05-10T13:31:33;17.05;;;11.73;;
24157;SDS011;12316;50.904;4.200;2023-05-10T13:33:59;16.08;;;11.77;;
24157;SDS011;12316;50.904;4.200;2023-05-10T13:36:25;15.02;;;12.00;;
24157;SDS011;12316;50.904;4.200;2023-05-10T13:38:51;14.90;;;11.75;;
24157;SDS011;12316;50.904;4.200;2023-05-10T13:41:17;16.58;;;12.45;;
24157;SDS011;12316;50.904;4.200;2023-05-10T13:43:42;15.98;;;12.70;;
24157;SDS011;12316;50.904;4.200;2023-05-10T13:46:08;14.05;;;11.82;;
24157;SDS011;12316;50.904;4.200;2023-05-10T13:48:34;14.32;;;11.90;;
24157;SDS011;12316;50.904;4.200;2023-05-10T13:51:01;16.70;;;12.88;;
24157;SDS011;12316;50.904;4.200;2023-05-10T13:53:27;14.55;;;11.95;;
24157;SDS011;12316;50.904;4.200;2023-05-10T13:55:54;15.15;;;12.38;;
24157;SDS011;12316;50.904;4.200;2023-05-10T13:58:19;17.27;;;12.70;;
24157;SDS011;12316;50.904;4.200;2023-05-10T14:00:45;15.10;;;12.82;;
24157;SDS011;12316;50.904;4.200;2023-05-10T14:03:11;16.33;;;12.70;;
24157;SDS011;12316;50.904;4.200;2023-05-10T14:05:36;16.55;;;12.93;;
24157;SDS011;12316;50.904;4.200;2023-05-10T14:08:02;17.95;;;14.90;;
24157;SDS011;12316;50.904;4.200;2023-05-10T14:10:29;16.45;;;14.23;;
24157;SDS011;12316;50.904;4.200;2023-05-10T14:12:55;16.88;;;13.60;;
24157;SDS011;12316;50.904;4.200;2023-05-10T14:15:20;15.32;;;12.38;;
24157;SDS011;12316;50.904;4.200;2023-05-10T14:17:46;14.93;;;12.68;;
24157;SDS011;12316;50.904;4.200;2023-05-10T14:20:12;16.23;;;12.50;;
24157;SDS011;12316;50.904;4.200;2023-05-10T14:22:37;15.45;;;12.02;;
24157;SDS011;12316;50.904;4.200;2023-05-10T14:25:03;14.40;;;11.82;;
24157;SDS011;12316;50.904;4.200;2023-05-10T14:27:29;15.82;;;12.45;;
24157;SDS011;12316;50.904;4.200;2023-05-10T14:29:55;17.15;;;12.20;;
24157;SDS011;12316;50.904;4.200;2023-05-10T14:32:21;14.55;;;11.70;;
24157;SDS011;12316;50.904;4.200;2023-05-10T14:34:46;17.15;;;12.85;;
24157;SDS011;12316;50.904;4.200;2023-05-10T14:37:13;17.98;;;12.65;;
24157;SDS011;12316;50.904;4.200;2023-05-10T14:39:39;15.48;;;12.23;;
24157;SDS011;12316;50.904;4.200;2023-05-10T14:42:05;15.65;;;13.15;;
24157;SDS011;12316;50.904;4.200;2023-05-10T14:44:32;17.38;;;13.32;;
24157;SDS011;12316;50.904;4.200;2023-05-10T14:46:57;16.20;;;14.10;;
24157;SDS011;12316;50.904;4.200;2023-05-10T14:49:23;19.33;;;13.82;;
24157;SDS011;12316;50.904;4.200;2023-05-10T14:51:50;17.77;;;14.13;;
24157;SDS011;12316;50.904;4.200;2023-05-10T14:54:18;17.17;;;13.13;;
24157;SDS011;12316;50.904;4.200;2023-05-10T14:56:43;17.63;;;12.52;;
24157;SDS011;12316;50.904;4.200;2023-05-10T14:59:10;15.10;;;10.75;;
24157;SDS011;12316;50.904;4.200;2023-05-10T15:01:35;15.80;;;10.45;;
24157;SDS011;12316;50.904;4.200;2023-05-10T15:04:03;15.43;;;9.95;;
24157;SDS011;12316;50.904;4.200;2023-05-10T15:06:32;13.73;;;9.77;;
24157;SDS011;12316;50.904;4.200;2023-05-10T15:08:59;17.33;;;9.57;;
24157;SDS011;12316;50.904;4.200;2023-05-10T15:11:25;14.02;;;9.98;;
24157;SDS011;12316;50.904;4.200;2023-05-10T15:13:51;11.43;;;7.65;;